createdAt,value
2018-03-18T00:00:00.395Z,8.00
2018-03-18T00:01:00.406Z,8.00
2018-03-18T00:02:00.419Z,8.00
2018-03-18T00:03:00.433Z,8.00
2018-03-18T00:04:00.444Z,8.00
2018-03-18T00:05:00.455Z,4.00
2018-03-18T00:06:00.469Z,8.00
2018-03-18T00:07:00.480Z,4.00
2018-03-18T00:08:00.491Z,4.00
2018-03-18T00:09:00.503Z,8.00
2018-03-18T00:10:00.516Z,8.00
2018-03-18T00:11:00.529Z,8.00
2018-03-18T00:12:00.540Z,8.00
2018-03-18T00:13:00.552Z,8.00
2018-03-18T00:14:00.570Z,4.00
2018-03-18T00:15:00.576Z,8.00
2018-03-18T00:16:00.589Z,4.00
2018-03-18T00:17:00.599Z,8.00
2018-03-18T00:18:00.611Z,8.00
2018-03-18T00:19:00.625Z,8.00
2018-03-18T00:20:00.645Z,4.00
2018-03-18T00:21:00.648Z,8.00
2018-03-18T00:22:00.660Z,4.00
2018-03-18T00:23:00.673Z,8.00
2018-03-18T00:24:00.686Z,8.00
2018-03-18T00:25:00.696Z,8.00
2018-03-18T00:26:00.710Z,8.00
2018-03-18T00:27:00.721Z,8.00
2018-03-18T00:28:00.734Z,8.00
2018-03-18T00:29:00.745Z,8.00
2018-03-18T00:30:00.758Z,8.00
2018-03-18T00:31:00.771Z,8.00
2018-03-18T00:32:00.782Z,8.00
2018-03-18T00:33:00.794Z,8.00
2018-03-18T00:34:00.806Z,4.00
2018-03-18T00:35:00.819Z,8.00
2018-03-18T00:36:00.831Z,4.00
2018-03-18T00:37:00.844Z,4.00
2018-03-18T00:38:00.855Z,4.00
2018-03-18T00:39:00.867Z,4.00
2018-03-18T00:40:00.887Z,4.00
2018-03-18T00:41:00.891Z,8.00
2018-03-18T00:42:00.902Z,8.00
2018-03-18T00:43:00.915Z,8.00
2018-03-18T00:44:00.927Z,8.00
2018-03-18T00:45:00.939Z,8.00
2018-03-18T00:46:00.951Z,8.00
2018-03-18T00:47:00.963Z,8.00
2018-03-18T00:48:00.975Z,8.00
2018-03-18T00:49:00.986Z,8.00
2018-03-18T00:50:00.999Z,8.00
2018-03-18T00:51:01.010Z,8.00
2018-03-18T00:52:01.036Z,8.00
2018-03-18T00:53:01.043Z,4.00
2018-03-18T00:54:01.055Z,8.00
2018-03-18T00:55:01.060Z,4.00
2018-03-18T00:56:01.071Z,8.00
2018-03-18T00:57:01.081Z,4.00
2018-03-18T00:58:01.095Z,8.00
2018-03-18T00:59:01.107Z,4.00
2018-03-18T01:00:01.118Z,8.00
2018-03-18T01:01:01.130Z,8.00
2018-03-18T01:02:01.143Z,4.00
2018-03-18T01:03:01.155Z,8.00
2018-03-18T01:04:01.166Z,8.00
2018-03-18T01:05:01.180Z,8.00
2018-03-18T01:06:01.194Z,8.00
2018-03-18T01:07:01.202Z,8.00
2018-03-18T01:08:01.215Z,8.00
2018-03-18T01:09:01.226Z,8.00
2018-03-18T01:10:01.240Z,8.00
2018-03-18T01:11:01.250Z,4.00
2018-03-18T01:12:01.263Z,4.00
2018-03-18T01:13:01.275Z,4.00
2018-03-18T01:14:01.292Z,4.00
2018-03-18T01:15:01.299Z,4.00
2018-03-18T01:16:01.311Z,4.00
2018-03-18T01:17:01.325Z,4.00
2018-03-18T01:18:01.334Z,4.00
2018-03-18T01:19:01.346Z,4.00
2018-03-18T01:20:01.359Z,4.00
2018-03-18T01:21:01.375Z,4.00
2018-03-18T01:22:01.381Z,4.00
2018-03-18T01:23:01.394Z,4.00
2018-03-18T01:24:01.407Z,4.00
2018-03-18T01:25:01.417Z,4.00
2018-03-18T01:26:01.433Z,4.00
2018-03-18T01:27:01.441Z,4.00
2018-03-18T01:28:01.454Z,4.00
2018-03-18T01:29:01.464Z,4.00
2018-03-18T01:30:01.478Z,4.00
2018-03-18T01:31:01.489Z,4.00
2018-03-18T01:32:01.503Z,4.00
2018-03-18T01:33:01.515Z,4.00
2018-03-18T01:34:01.526Z,4.00
2018-03-18T01:35:01.540Z,4.00
2018-03-18T01:36:01.549Z,4.00
2018-03-18T01:37:01.560Z,4.00
2018-03-18T01:38:01.577Z,4.00
2018-03-18T01:39:01.584Z,4.00
2018-03-18T01:40:01.600Z,4.00
2018-03-18T01:41:01.609Z,4.00
2018-03-18T01:42:01.620Z,4.00
2018-03-18T01:43:01.633Z,4.00
2018-03-18T01:44:01.644Z,4.00
2018-03-18T01:45:01.655Z,4.00
2018-03-18T01:46:01.667Z,4.00
2018-03-18T01:47:01.679Z,4.00
2018-03-18T01:48:01.728Z,4.00
2018-03-18T01:49:01.712Z,4.00
2018-03-18T01:50:01.716Z,4.00
2018-03-18T01:51:01.728Z,4.00
2018-03-18T01:52:01.738Z,4.00
2018-03-18T01:53:01.750Z,4.00
2018-03-18T01:54:01.768Z,4.00
2018-03-18T01:55:01.776Z,4.00
2018-03-18T01:56:01.790Z,4.00
2018-03-18T01:57:01.797Z,4.00
2018-03-18T01:58:01.809Z,4.00
2018-03-18T01:59:01.820Z,4.00
2018-03-18T02:00:01.837Z,4.00
2018-03-18T02:01:01.859Z,4.00
2018-03-18T02:02:01.856Z,4.00
2018-03-18T02:03:01.869Z,4.00
2018-03-18T02:04:01.880Z,4.00
2018-03-18T02:05:01.892Z,4.00
2018-03-18T02:06:01.904Z,4.00
2018-03-18T02:07:01.917Z,4.00
2018-03-18T02:08:01.927Z,4.00
2018-03-18T02:09:01.939Z,4.00
2018-03-18T02:10:01.951Z,4.00
2018-03-18T02:11:01.965Z,4.00
2018-03-18T02:12:01.974Z,4.00
2018-03-18T02:13:01.987Z,4.00
2018-03-18T02:14:01.996Z,4.00
2018-03-18T02:15:02.009Z,4.00
2018-03-18T02:16:02.022Z,4.00
2018-03-18T02:17:02.033Z,4.00
2018-03-18T02:18:02.046Z,4.00
2018-03-18T02:19:02.063Z,4.00
2018-03-18T02:20:02.072Z,4.00
2018-03-18T02:21:02.079Z,4.00
2018-03-18T02:22:02.091Z,4.00
2018-03-18T02:23:02.106Z,4.00
2018-03-18T02:24:02.118Z,4.00
2018-03-18T02:25:02.129Z,4.00
2018-03-18T02:26:02.138Z,4.00
2018-03-18T02:27:02.150Z,4.00
2018-03-18T02:28:02.162Z,4.00
2018-03-18T02:29:02.173Z,4.00
2018-03-18T02:30:02.189Z,4.00
2018-03-18T02:31:02.197Z,4.00
2018-03-18T02:32:02.208Z,4.00
2018-03-18T02:33:02.222Z,4.00
2018-03-18T02:34:02.232Z,4.00
2018-03-18T02:35:02.245Z,4.00
2018-03-18T02:36:02.257Z,4.00
2018-03-18T02:37:02.267Z,4.00
2018-03-18T02:38:02.287Z,4.00
2018-03-18T02:39:02.291Z,4.00
2018-03-18T02:40:02.302Z,4.00
2018-03-18T02:41:02.329Z,4.00
2018-03-18T02:42:02.325Z,4.00
2018-03-18T02:43:02.337Z,4.00
2018-03-18T02:44:02.352Z,4.00
2018-03-18T02:45:02.360Z,4.00
2018-03-18T02:46:02.374Z,4.00
2018-03-18T02:47:02.384Z,4.00
2018-03-18T02:48:02.396Z,4.00
2018-03-18T02:49:02.408Z,4.00
2018-03-18T02:50:02.421Z,4.00
2018-03-18T02:51:02.431Z,4.00
2018-03-18T02:52:02.441Z,4.00
2018-03-18T02:53:02.453Z,4.00
2018-03-18T02:54:02.465Z,4.00
2018-03-18T02:55:02.477Z,4.00
2018-03-18T02:56:02.488Z,4.00
2018-03-18T02:57:02.501Z,4.00
2018-03-18T02:58:02.512Z,4.00
2018-03-18T02:59:02.523Z,4.00
2018-03-18T03:00:02.537Z,4.00
2018-03-18T03:01:02.545Z,4.00
2018-03-18T03:02:02.557Z,4.00
2018-03-18T03:03:02.569Z,4.00
2018-03-18T03:04:02.582Z,4.00
2018-03-18T03:05:02.594Z,4.00
2018-03-18T03:06:02.604Z,4.00
2018-03-18T03:07:02.616Z,4.00
2018-03-18T03:08:02.627Z,4.00
2018-03-18T03:09:02.638Z,4.00
2018-03-18T03:10:02.648Z,4.00
2018-03-18T03:11:02.662Z,4.00
2018-03-18T03:12:02.673Z,4.00
2018-03-18T03:13:02.684Z,4.00
2018-03-18T03:14:02.698Z,4.00
2018-03-18T03:15:02.716Z,4.00
2018-03-18T03:16:02.719Z,4.00
2018-03-18T03:17:02.768Z,4.00
2018-03-18T03:18:02.742Z,4.00
2018-03-18T03:19:02.753Z,4.00
2018-03-18T03:20:02.765Z,8.00
2018-03-18T03:21:02.777Z,4.00
2018-03-18T03:22:02.788Z,4.00
2018-03-18T03:23:02.801Z,4.00
2018-03-18T03:24:02.811Z,4.00
2018-03-18T03:25:02.829Z,4.00
2018-03-18T03:26:02.834Z,4.00
2018-03-18T03:27:02.845Z,4.00
2018-03-18T03:28:02.856Z,4.00
2018-03-18T03:29:02.868Z,4.00
2018-03-18T03:30:02.898Z,4.00
2018-03-18T03:31:02.893Z,4.00
2018-03-18T03:32:02.905Z,4.00
2018-03-18T03:33:02.916Z,4.00
2018-03-18T03:34:02.926Z,4.00
2018-03-18T03:35:02.937Z,4.00
2018-03-18T03:36:02.949Z,4.00
2018-03-18T03:37:02.960Z,4.00
2018-03-18T03:38:02.975Z,4.00
2018-03-18T03:39:02.983Z,4.00
2018-03-18T03:40:03.052Z,4.00
2018-03-18T03:41:03.006Z,4.00
2018-03-18T03:42:03.017Z,4.00
2018-03-18T03:43:03.029Z,4.00
2018-03-18T03:44:03.042Z,4.00
2018-03-18T03:45:03.059Z,4.00
2018-03-18T03:46:03.062Z,4.00
2018-03-18T03:47:03.074Z,4.00
2018-03-18T03:48:03.087Z,4.00
2018-03-18T03:49:03.102Z,4.00
2018-03-18T03:50:03.109Z,4.00
2018-03-18T03:51:03.120Z,4.00
2018-03-18T03:52:03.133Z,4.00
2018-03-18T03:53:03.148Z,4.00
2018-03-18T03:54:03.153Z,4.00
2018-03-18T03:55:03.167Z,4.00
2018-03-18T03:56:03.178Z,4.00
2018-03-18T03:57:03.189Z,4.00
2018-03-18T03:58:03.200Z,4.00
2018-03-18T03:59:03.212Z,4.00
2018-03-18T04:00:03.222Z,4.00
2018-03-18T04:01:03.234Z,4.00
2018-03-18T04:02:03.245Z,4.00
2018-03-18T04:03:03.257Z,4.00
2018-03-18T04:04:03.268Z,4.00
2018-03-18T04:05:03.279Z,4.00
2018-03-18T04:06:03.291Z,4.00
2018-03-18T04:07:03.302Z,4.00
2018-03-18T04:08:03.315Z,4.00
2018-03-18T04:09:03.323Z,4.00
2018-03-18T04:10:03.336Z,4.00
2018-03-18T04:11:03.348Z,4.00
2018-03-18T04:12:03.360Z,4.00
2018-03-18T04:13:03.370Z,4.00
2018-03-18T04:14:03.383Z,4.00
2018-03-18T04:15:03.393Z,4.00
2018-03-18T04:16:03.407Z,4.00
2018-03-18T04:17:03.415Z,4.00
2018-03-18T04:18:03.426Z,4.00
2018-03-18T04:19:03.438Z,4.00
2018-03-18T04:20:03.450Z,4.00
2018-03-18T04:21:03.460Z,4.00
2018-03-18T04:22:03.471Z,4.00
2018-03-18T04:23:03.484Z,4.00
2018-03-18T04:24:03.496Z,4.00
2018-03-18T04:25:03.506Z,4.00
2018-03-18T04:26:03.517Z,4.00
2018-03-18T04:27:03.528Z,4.00
2018-03-18T04:28:03.544Z,4.00
2018-03-18T04:29:03.551Z,4.00
2018-03-18T04:30:03.562Z,4.00
2018-03-18T04:31:03.574Z,4.00
2018-03-18T04:32:03.585Z,4.00
2018-03-18T04:33:03.594Z,4.00
2018-03-18T04:34:03.609Z,4.00
2018-03-18T04:35:03.620Z,4.00
2018-03-18T04:36:03.681Z,4.00
2018-03-18T04:37:03.641Z,4.00
2018-03-18T04:38:03.660Z,4.00
2018-03-18T04:39:03.664Z,4.00
2018-03-18T04:40:03.682Z,4.00
2018-03-18T04:41:03.688Z,4.00
2018-03-18T04:42:03.698Z,4.00
2018-03-18T04:43:03.709Z,4.00
2018-03-18T04:44:03.721Z,4.00
2018-03-18T04:45:03.733Z,4.00
2018-03-18T04:46:03.744Z,4.00
2018-03-18T04:47:03.754Z,4.00
2018-03-18T04:48:03.766Z,4.00
2018-03-18T04:49:03.777Z,4.00
2018-03-18T04:50:03.788Z,4.00
2018-03-18T04:51:03.799Z,4.00
2018-03-18T04:52:03.839Z,4.00
2018-03-18T04:53:03.820Z,4.00
2018-03-18T04:54:03.834Z,4.00
2018-03-18T04:55:03.846Z,4.00
2018-03-18T04:56:03.860Z,4.00
2018-03-18T04:57:03.873Z,4.00
2018-03-18T04:58:03.879Z,4.00
2018-03-18T04:59:03.895Z,4.00
2018-03-18T05:00:03.901Z,4.00
2018-03-18T05:01:03.913Z,4.00
2018-03-18T05:02:03.923Z,4.00
2018-03-18T05:03:03.934Z,4.00
2018-03-18T05:04:03.946Z,4.00
2018-03-18T05:05:03.956Z,8.00
2018-03-18T05:06:03.968Z,4.00
2018-03-18T05:07:03.979Z,4.00
2018-03-18T05:08:03.990Z,4.00
2018-03-18T05:09:04.000Z,4.00
2018-03-18T05:10:04.013Z,8.00
2018-03-18T05:11:04.024Z,8.00
2018-03-18T05:12:04.036Z,8.00
2018-03-18T05:13:04.046Z,8.00
2018-03-18T05:14:04.060Z,8.00
2018-03-18T05:15:04.068Z,8.00
2018-03-18T05:16:04.080Z,8.00
2018-03-18T05:17:04.095Z,12.00
2018-03-18T05:18:07.135Z,12.00
2018-03-18T05:19:04.113Z,12.00
2018-03-18T05:20:04.125Z,12.00
2018-03-18T05:21:04.134Z,16.00
2018-03-18T05:22:04.146Z,16.00
2018-03-18T05:23:04.157Z,12.00
2018-03-18T05:24:04.170Z,16.00
2018-03-18T05:25:04.180Z,20.00
2018-03-18T05:26:04.191Z,24.00
2018-03-18T05:27:04.202Z,28.00
2018-03-18T05:28:04.214Z,32.00
2018-03-18T05:29:04.225Z,36.00
2018-03-18T05:30:04.234Z,40.00
2018-03-18T05:31:04.249Z,44.00
2018-03-18T05:32:04.258Z,48.00
2018-03-18T05:33:04.268Z,56.00
2018-03-18T05:34:04.286Z,64.00
2018-03-18T05:35:04.291Z,68.00
2018-03-18T05:36:04.302Z,72.00
2018-03-18T05:37:04.312Z,80.00
2018-03-18T05:38:04.323Z,88.00
2018-03-18T05:39:04.335Z,100.00
2018-03-18T05:40:04.347Z,108.00
2018-03-18T05:41:04.357Z,116.00
2018-03-18T05:42:04.369Z,128.00
2018-03-18T05:43:04.396Z,136.00
2018-03-18T05:44:04.392Z,148.00
2018-03-18T05:45:04.404Z,164.00
2018-03-18T05:46:04.416Z,172.00
2018-03-18T05:47:04.426Z,184.00
2018-03-18T05:48:04.436Z,200.00
2018-03-18T05:49:04.446Z,212.00
2018-03-18T05:50:04.457Z,224.00
2018-03-18T05:51:04.470Z,240.00
2018-03-18T05:52:04.480Z,256.00
2018-03-18T05:53:04.497Z,272.00
2018-03-18T05:54:04.502Z,284.00
2018-03-18T05:55:04.513Z,300.00
2018-03-18T05:56:04.526Z,320.00
2018-03-18T05:57:04.536Z,336.00
2018-03-18T05:58:04.547Z,356.00
2018-03-18T05:59:04.558Z,372.00
2018-03-18T06:00:04.570Z,396.00
2018-03-18T06:01:04.579Z,416.00
2018-03-18T06:02:04.592Z,436.00
2018-03-18T06:03:04.603Z,464.00
2018-03-18T06:04:04.618Z,484.00
2018-03-18T06:05:04.625Z,508.00
2018-03-18T06:06:04.637Z,532.00
2018-03-18T06:07:04.651Z,560.00
2018-03-18T06:08:04.659Z,588.00
2018-03-18T06:09:04.669Z,616.00
2018-03-18T06:10:04.680Z,644.00
2018-03-18T06:11:04.692Z,676.00
2018-03-18T06:12:04.704Z,708.00
2018-03-18T06:13:04.714Z,740.00
2018-03-18T06:14:04.726Z,776.00
2018-03-18T06:15:04.736Z,808.00
2018-03-18T06:16:04.753Z,840.00
2018-03-18T06:17:04.759Z,880.00
2018-03-18T06:18:04.770Z,920.00
2018-03-18T06:19:04.782Z,956.00
2018-03-18T06:20:04.794Z,1004.00
2018-03-18T06:21:04.804Z,1044.00
2018-03-18T06:22:04.816Z,1092.00
2018-03-18T06:23:04.828Z,1132.00
2018-03-18T06:24:04.839Z,1180.00
2018-03-18T06:25:04.849Z,1224.00
2018-03-18T06:26:04.862Z,1272.00
2018-03-18T06:27:04.873Z,1324.00
2018-03-18T06:28:04.883Z,1376.00
2018-03-18T06:29:04.894Z,1424.00
2018-03-18T06:30:04.907Z,1476.00
2018-03-18T06:31:04.918Z,1520.00
2018-03-18T06:32:04.930Z,1568.00
2018-03-18T06:33:04.940Z,1616.00
2018-03-18T06:34:04.952Z,1656.00
2018-03-18T06:35:04.965Z,1704.00
2018-03-18T06:36:04.975Z,1752.00
2018-03-18T06:37:04.986Z,1800.00
2018-03-18T06:38:04.997Z,1844.00
2018-03-18T06:39:05.010Z,1892.00
2018-03-18T06:40:05.022Z,1940.00
2018-03-18T06:41:05.031Z,1980.00
2018-03-18T06:42:05.045Z,2024.00
2018-03-18T06:43:05.060Z,2064.00
2018-03-18T06:44:05.121Z,2104.00
2018-03-18T06:45:05.077Z,2140.00
2018-03-18T06:46:05.088Z,2168.00
2018-03-18T06:47:05.099Z,2192.00
2018-03-18T06:48:05.112Z,2208.00
2018-03-18T06:49:05.122Z,2220.00
2018-03-18T06:50:05.139Z,2228.00
2018-03-18T06:51:05.146Z,2256.00
2018-03-18T06:52:05.158Z,2284.00
2018-03-18T06:53:05.167Z,2300.00
2018-03-18T06:54:05.183Z,2308.00
2018-03-18T06:55:05.191Z,2300.00
2018-03-18T06:56:05.204Z,2300.00
2018-03-18T06:57:05.213Z,2304.00
2018-03-18T06:58:05.227Z,2312.00
2018-03-18T06:59:05.238Z,2316.00
2018-03-18T07:00:05.249Z,2320.00
2018-03-18T07:01:05.262Z,2336.00
2018-03-18T07:02:05.272Z,2340.00
2018-03-18T07:03:05.283Z,2348.00
2018-03-18T07:04:05.295Z,2356.00
2018-03-18T07:05:05.308Z,2384.00
2018-03-18T07:06:05.320Z,2392.00
2018-03-18T07:07:05.330Z,2416.00
2018-03-18T07:08:05.344Z,2432.00
2018-03-18T07:09:05.354Z,2448.00
2018-03-18T07:10:05.364Z,2464.00
2018-03-18T07:11:05.375Z,2484.00
2018-03-18T07:12:05.387Z,2496.00
2018-03-18T07:13:05.402Z,2508.00
2018-03-18T07:14:05.411Z,2512.00
2018-03-18T07:15:05.422Z,2516.00
2018-03-18T07:16:05.434Z,2556.00
2018-03-18T07:17:05.445Z,2628.00
2018-03-18T07:18:05.456Z,2696.00
2018-03-18T07:19:05.468Z,2708.00
2018-03-18T07:20:05.481Z,2672.00
2018-03-18T07:21:05.497Z,2600.00
2018-03-18T07:22:05.502Z,2584.00
2018-03-18T07:23:05.515Z,2576.00
2018-03-18T07:24:05.526Z,2632.00
2018-03-18T07:25:05.545Z,2656.00
2018-03-18T07:26:05.550Z,2672.00
2018-03-18T07:27:05.560Z,2696.00
2018-03-18T07:28:05.572Z,2712.00
2018-03-18T07:29:05.582Z,2712.00
2018-03-18T07:30:05.595Z,2712.00
2018-03-18T07:31:05.606Z,2720.00
2018-03-18T07:32:05.618Z,2744.00
2018-03-18T07:33:05.639Z,2780.00
2018-03-18T07:34:05.641Z,2812.00
2018-03-18T07:35:05.653Z,2820.00
2018-03-18T07:36:05.664Z,2808.00
2018-03-18T07:37:05.679Z,2832.00
2018-03-18T07:38:05.689Z,2872.00
2018-03-18T07:39:05.733Z,2896.00
2018-03-18T07:40:05.722Z,2912.00
2018-03-18T07:41:05.723Z,2948.00
2018-03-18T07:42:05.783Z,2968.00
2018-03-18T07:43:05.745Z,3004.00
2018-03-18T07:44:05.761Z,3068.00
2018-03-18T07:45:05.768Z,3128.00
2018-03-18T07:46:05.781Z,3164.00
2018-03-18T07:47:05.792Z,3160.00
2018-03-18T07:48:05.807Z,3160.00
2018-03-18T07:49:05.916Z,3180.00
2018-03-18T07:50:05.833Z,3228.00
2018-03-18T07:51:05.847Z,3268.00
2018-03-18T07:52:05.856Z,3304.00
2018-03-18T07:53:05.866Z,3352.00
2018-03-18T07:54:05.873Z,3408.00
2018-03-18T07:55:05.888Z,3440.00
2018-03-18T07:56:05.897Z,3456.00
2018-03-18T07:57:05.910Z,3492.00
2018-03-18T07:58:05.920Z,3540.00
2018-03-18T07:59:05.932Z,3584.00
2018-03-18T08:00:05.944Z,3636.00
2018-03-18T08:01:05.955Z,3684.00
2018-03-18T08:02:05.967Z,3732.00
2018-03-18T08:03:05.980Z,3756.00
2018-03-18T08:04:05.991Z,3780.00
2018-03-18T08:05:06.001Z,3816.00
2018-03-18T08:06:06.013Z,3848.00
2018-03-18T08:07:06.026Z,3872.00
2018-03-18T08:08:06.041Z,3900.00
2018-03-18T08:09:06.059Z,3932.00
2018-03-18T08:10:06.061Z,3980.00
2018-03-18T08:11:06.073Z,4020.00
2018-03-18T08:12:06.085Z,4064.00
2018-03-18T08:13:06.103Z,4096.00
2018-03-18T08:14:06.111Z,4124.00
2018-03-18T08:15:06.121Z,4164.00
2018-03-18T08:16:06.131Z,4216.00
2018-03-18T08:17:06.145Z,4244.00
2018-03-18T08:18:06.155Z,4260.00
2018-03-18T08:19:06.167Z,4280.00
2018-03-18T08:20:06.179Z,4328.00
2018-03-18T08:21:06.190Z,4380.00
2018-03-18T08:22:06.316Z,4416.00
2018-03-18T08:23:06.215Z,4464.00
2018-03-18T08:24:06.231Z,4512.00
2018-03-18T08:25:06.240Z,4536.00
2018-03-18T08:26:06.256Z,4556.00
2018-03-18T08:27:06.263Z,4596.00
2018-03-18T08:28:06.275Z,4648.00
2018-03-18T08:29:06.287Z,4688.00
2018-03-18T08:30:06.299Z,4720.00
2018-03-18T08:31:06.312Z,4744.00
2018-03-18T08:32:06.323Z,4772.00
2018-03-18T08:33:06.334Z,4784.00
2018-03-18T08:34:06.347Z,4788.00
2018-03-18T08:35:06.360Z,4812.00
2018-03-18T08:36:06.372Z,4860.00
2018-03-18T08:37:06.383Z,4896.00
2018-03-18T08:38:06.396Z,4912.00
2018-03-18T08:39:06.408Z,4944.00
2018-03-18T08:40:06.422Z,4976.00
2018-03-18T08:41:06.431Z,4992.00
2018-03-18T08:42:06.444Z,5024.00
2018-03-18T08:43:06.456Z,5064.00
2018-03-18T08:44:06.470Z,5088.00
2018-03-18T08:45:06.480Z,5104.00
2018-03-18T08:46:06.492Z,5124.00
2018-03-18T08:47:06.506Z,5136.00
2018-03-18T08:48:06.517Z,5168.00
2018-03-18T08:49:06.530Z,5208.00
2018-03-18T08:50:06.544Z,5216.00
2018-03-18T08:51:06.554Z,5216.00
2018-03-18T08:52:06.567Z,5212.00
2018-03-18T08:53:06.576Z,5188.00
2018-03-18T08:54:06.590Z,5180.00
2018-03-18T08:55:06.603Z,5184.00
2018-03-18T08:56:06.615Z,5192.00
2018-03-18T08:57:06.629Z,5196.00
2018-03-18T08:58:06.644Z,5208.00
2018-03-18T08:59:06.651Z,5200.00
2018-03-18T09:00:06.663Z,5180.00
2018-03-18T09:01:06.676Z,5180.00
2018-03-18T09:02:06.688Z,5200.00
2018-03-18T09:03:06.702Z,5240.00
2018-03-18T09:04:06.715Z,5248.00
2018-03-18T09:05:06.726Z,5240.00
2018-03-18T09:06:06.739Z,5276.00
2018-03-18T09:07:06.752Z,5320.00
2018-03-18T09:08:06.762Z,5380.00
2018-03-18T09:09:06.774Z,5440.00
2018-03-18T09:10:06.786Z,5496.00
2018-03-18T09:11:06.805Z,5532.00
2018-03-18T09:12:06.813Z,5568.00
2018-03-18T09:13:06.822Z,5620.00
2018-03-18T09:14:06.842Z,5672.00
2018-03-18T09:15:06.849Z,5720.00
2018-03-18T09:16:06.866Z,5772.00
2018-03-18T09:17:06.872Z,5764.00
2018-03-18T09:18:06.891Z,5748.00
2018-03-18T09:19:06.898Z,5780.00
2018-03-18T09:20:06.910Z,5808.00
2018-03-18T09:21:06.925Z,5832.00
2018-03-18T09:22:06.935Z,5872.00
2018-03-18T09:23:06.958Z,5904.00
2018-03-18T09:24:06.965Z,5984.00
2018-03-18T09:25:06.981Z,6088.00
2018-03-18T09:26:06.984Z,6184.00
2018-03-18T09:27:07.004Z,6232.00
2018-03-18T09:28:07.010Z,6376.00
2018-03-18T09:29:07.026Z,6428.00
2018-03-18T09:30:07.036Z,6600.00
2018-03-18T09:31:07.053Z,6712.00
2018-03-18T09:32:07.061Z,6896.00
2018-03-18T09:33:07.074Z,6904.00
2018-03-18T09:34:07.091Z,7268.00
2018-03-18T09:35:07.096Z,8100.00
2018-03-18T09:36:07.115Z,8604.00
2018-03-18T09:37:07.122Z,7168.00
2018-03-18T09:38:07.134Z,7548.00
2018-03-18T09:39:07.148Z,7588.00
2018-03-18T09:40:07.159Z,7468.00
2018-03-18T09:41:07.173Z,7316.00
2018-03-18T09:42:07.185Z,7196.00
2018-03-18T09:43:07.210Z,7740.00
2018-03-18T09:44:07.212Z,8684.00
2018-03-18T09:45:07.224Z,9048.00
2018-03-18T09:46:07.237Z,8196.00
2018-03-18T09:47:07.250Z,9616.00
2018-03-18T09:48:07.281Z,8228.00
2018-03-18T09:49:07.277Z,7696.00
2018-03-18T09:50:07.287Z,7796.00
2018-03-18T09:51:07.301Z,7804.00
2018-03-18T09:52:07.314Z,7480.00
2018-03-18T09:53:07.326Z,7668.00
2018-03-18T09:54:07.357Z,7328.00
2018-03-18T09:55:07.352Z,7172.00
2018-03-18T09:56:07.367Z,7044.00
2018-03-18T09:57:07.378Z,6900.00
2018-03-18T09:58:07.392Z,6940.00
2018-03-18T09:59:07.404Z,7036.00
2018-03-18T10:00:07.418Z,7084.00
2018-03-18T10:01:07.433Z,7376.00
2018-03-18T10:02:07.443Z,7524.00
2018-03-18T10:03:07.457Z,7500.00
2018-03-18T10:04:07.473Z,7648.00
2018-03-18T10:05:07.482Z,7836.00
2018-03-18T10:06:07.496Z,9664.00
2018-03-18T10:07:07.509Z,8048.00
2018-03-18T10:08:07.522Z,7768.00
2018-03-18T10:09:07.534Z,9500.00
2018-03-18T10:10:07.547Z,7576.00
2018-03-18T10:11:07.566Z,7392.00
2018-03-18T10:12:07.574Z,7252.00
2018-03-18T10:13:07.586Z,7252.00
2018-03-18T10:14:07.600Z,7072.00
2018-03-18T10:15:07.617Z,7184.00
2018-03-18T10:16:07.626Z,7064.00
2018-03-18T10:17:07.638Z,7176.00
2018-03-18T10:18:07.652Z,7648.00
2018-03-18T10:19:07.665Z,7072.00
2018-03-18T10:20:07.679Z,7036.00
2018-03-18T10:21:07.691Z,7188.00
2018-03-18T10:22:07.704Z,7020.00
2018-03-18T10:23:07.717Z,6868.00
2018-03-18T10:24:07.731Z,6780.00
2018-03-18T10:25:07.743Z,6828.00
2018-03-18T10:26:07.756Z,6724.00
2018-03-18T10:27:07.770Z,6736.00
2018-03-18T10:28:07.783Z,6856.00
2018-03-18T10:29:07.796Z,6836.00
2018-03-18T10:30:07.813Z,6788.00
2018-03-18T10:31:07.843Z,6596.00
2018-03-18T10:32:07.837Z,6568.00
2018-03-18T10:33:07.852Z,6548.00
2018-03-18T10:34:07.861Z,6416.00
2018-03-18T10:35:07.875Z,6364.00
2018-03-18T10:36:07.889Z,6312.00
2018-03-18T10:37:07.901Z,6276.00
2018-03-18T10:38:07.914Z,6372.00
2018-03-18T10:39:07.929Z,6332.00
2018-03-18T10:40:07.942Z,6420.00
2018-03-18T10:41:07.954Z,6544.00
2018-03-18T10:42:07.968Z,6664.00
2018-03-18T10:43:07.982Z,6744.00
2018-03-18T10:44:07.995Z,6808.00
2018-03-18T10:45:08.006Z,6816.00
2018-03-18T10:46:08.022Z,6804.00
2018-03-18T10:47:08.036Z,6796.00
2018-03-18T10:48:08.047Z,6820.00
2018-03-18T10:49:08.060Z,6804.00
2018-03-18T10:50:08.073Z,6896.00
2018-03-18T10:51:08.086Z,6996.00
2018-03-18T10:52:08.099Z,7112.00
2018-03-18T10:53:08.112Z,7240.00
2018-03-18T10:54:08.125Z,7300.00
2018-03-18T10:55:08.138Z,7316.00
2018-03-18T10:56:08.152Z,7324.00
2018-03-18T10:57:08.165Z,7272.00
2018-03-18T10:58:08.180Z,7152.00
2018-03-18T10:59:08.191Z,7044.00
2018-03-18T11:00:08.206Z,6988.00
2018-03-18T11:01:08.221Z,7100.00
2018-03-18T11:02:08.231Z,6860.00
2018-03-18T11:03:08.246Z,6916.00
2018-03-18T11:04:08.258Z,6872.00
2018-03-18T11:05:08.270Z,6792.00
2018-03-18T11:06:08.284Z,6644.00
2018-03-18T11:07:08.297Z,6552.00
2018-03-18T11:08:08.311Z,6512.00
2018-03-18T11:09:08.323Z,6456.00
2018-03-18T11:10:08.337Z,6424.00
2018-03-18T11:11:08.350Z,6472.00
2018-03-18T11:12:08.363Z,6608.00
2018-03-18T11:13:08.380Z,6676.00
2018-03-18T11:14:08.391Z,7032.00
2018-03-18T11:15:08.467Z,6544.00
2018-03-18T11:16:08.454Z,6436.00
2018-03-18T11:17:08.430Z,6416.00
2018-03-18T11:18:08.497Z,6308.00
2018-03-18T11:19:08.457Z,6240.00
2018-03-18T11:20:08.470Z,6132.00
2018-03-18T11:21:08.482Z,5976.00
2018-03-18T11:22:08.496Z,5900.00
2018-03-18T11:23:08.509Z,5924.00
2018-03-18T11:24:08.522Z,5988.00
2018-03-18T11:25:08.536Z,6036.00
2018-03-18T11:26:08.549Z,5892.00
2018-03-18T11:27:08.562Z,5752.00
2018-03-18T11:28:08.578Z,5584.00
2018-03-18T11:29:08.589Z,5448.00
2018-03-18T11:30:08.605Z,5348.00
2018-03-18T11:31:08.615Z,5244.00
2018-03-18T11:32:08.629Z,5152.00
2018-03-18T11:33:08.642Z,5108.00
2018-03-18T11:34:08.655Z,5112.00
2018-03-18T11:35:08.669Z,5152.00
2018-03-18T11:36:08.680Z,5288.00
2018-03-18T11:37:08.696Z,5216.00
2018-03-18T11:38:08.709Z,5312.00
2018-03-18T11:39:08.721Z,5276.00
2018-03-18T11:40:08.734Z,5136.00
2018-03-18T11:41:08.752Z,5064.00
2018-03-18T11:42:08.760Z,5076.00
2018-03-18T11:43:08.773Z,4996.00
2018-03-18T11:44:08.787Z,5004.00
2018-03-18T11:45:08.800Z,5040.00
2018-03-18T11:46:08.812Z,5016.00
2018-03-18T11:47:08.825Z,4928.00
2018-03-18T11:48:08.839Z,4848.00
2018-03-18T11:49:08.852Z,4796.00
2018-03-18T11:50:08.868Z,4828.00
2018-03-18T11:51:08.878Z,4960.00
2018-03-18T11:52:08.892Z,4972.00
2018-03-18T11:53:08.904Z,5084.00
2018-03-18T11:54:08.918Z,5388.00
2018-03-18T11:55:08.932Z,5264.00
2018-03-18T11:56:08.945Z,5292.00
2018-03-18T11:57:08.956Z,5556.00
2018-03-18T11:58:08.976Z,5608.00
2018-03-18T11:59:08.984Z,5428.00
2018-03-18T12:00:08.997Z,5288.00
2018-03-18T12:01:09.041Z,5612.00
2018-03-18T12:02:09.022Z,5212.00
2018-03-18T12:03:09.037Z,5348.00
2018-03-18T12:04:09.049Z,5548.00
2018-03-18T12:05:09.063Z,5856.00
2018-03-18T12:06:09.075Z,5996.00
2018-03-18T12:07:09.088Z,5920.00
2018-03-18T12:08:09.102Z,5460.00
2018-03-18T12:09:09.115Z,4976.00
2018-03-18T12:10:09.129Z,5140.00
2018-03-18T12:11:09.144Z,5248.00
2018-03-18T12:12:09.155Z,4948.00
2018-03-18T12:13:09.168Z,5724.00
2018-03-18T12:14:09.181Z,5504.00
2018-03-18T12:15:09.195Z,5300.00
2018-03-18T12:16:09.207Z,5396.00
2018-03-18T12:17:09.220Z,5380.00
2018-03-18T12:18:09.234Z,5228.00
2018-03-18T12:19:09.248Z,5260.00
2018-03-18T12:20:09.261Z,5100.00
2018-03-18T12:21:09.273Z,5132.00
2018-03-18T12:22:09.289Z,5180.00
2018-03-18T12:23:09.300Z,5164.00
2018-03-18T12:24:09.312Z,5188.00
2018-03-18T12:25:09.326Z,5088.00
2018-03-18T12:26:09.340Z,5144.00
2018-03-18T12:27:09.354Z,5088.00
2018-03-18T12:28:09.367Z,4992.00
2018-03-18T12:29:09.379Z,5004.00
2018-03-18T12:30:09.393Z,5088.00
2018-03-18T12:31:09.406Z,5112.00
2018-03-18T12:32:09.426Z,5128.00
2018-03-18T12:33:09.433Z,5112.00
2018-03-18T12:34:09.446Z,5096.00
2018-03-18T12:35:09.459Z,5060.00
2018-03-18T12:36:09.473Z,5064.00
2018-03-18T12:37:09.486Z,5052.00